Time;durP1;ratioP1;P1;durP2;ratioP2;P2;SDS_P1;SDS_P2;PMS_P1;PMS_P2;Temp;Humidity;BMP_temperature;BMP_pressure;BME280_temperature;BME280_humidity;BME280_pressure;Samples;Min_cycle;Max_cycle;Signal;HPM_P1;HPM_P2
2022/07/02 00:00:04;;;;;;;15.38;11.05;;;;;;;13.43;100.00;101265.31;5159599;28;20042;-72
2022/07/02 00:02:36;;;;;;;15.60;10.48;;;;;;;13.60;100.00;101269.00;5159429;28;20026;-72
2022/07/02 00:05:07;;;;;;;16.30;10.93;;;;;;;13.58;100.00;101281.34;5158741;28;20633;-73
2022/07/02 00:07:37;;;;;;;16.95;12.48;;;;;;;13.52;100.00;101285.97;5156703;28;20031;-73
2022/07/02 00:10:08;;;;;;;18.48;11.40;;;;;;;13.62;100.00;101289.97;5158187;28;20068;-73
2022/07/02 00:12:38;;;;;;;18.60;11.23;;;;;;;13.47;100.00;101282.66;5157657;28;20022;-73
2022/07/02 00:15:10;;;;;;;14.18;10.35;;;;;;;13.52;100.00;101276.34;5159103;28;20052;-73
2022/07/02 00:17:40;;;;;;;18.13;10.55;;;;;;;13.54;100.00;101268.41;5158624;28;20026;-73
2022/07/02 00:20:11;;;;;;;18.63;9.95;;;;;;;13.51;100.00;101268.50;5146343;28;20054;-71
2022/07/02 00:22:43;;;;;;;13.25;10.35;;;;;;;13.44;100.00;101270.47;5159417;28;20026;-73
2022/07/02 00:25:13;;;;;;;14.80;9.75;;;;;;;13.31;100.00;101271.84;5157844;28;20384;-73
2022/07/02 00:27:43;;;;;;;12.13;10.07;;;;;;;13.47;100.00;101282.66;5158455;28;20029;-72
2022/07/02 00:30:14;;;;;;;15.95;10.10;;;;;;;13.44;100.00;101278.34;5159024;28;20052;-73
2022/07/02 00:32:46;;;;;;;13.73;10.38;;;;;;;13.30;100.00;101280.66;5158890;28;20026;-73
2022/07/02 00:35:18;;;;;;;19.08;10.75;;;;;;;13.19;100.00;101281.91;5154822;28;20018;-72
2022/07/02 00:37:49;;;;;;;19.60;10.27;;;;;;;13.36;100.00;101290.06;5158515;28;20050;-72
2022/07/02 00:40:21;;;;;;;18.08;10.13;;;;;;;13.22;100.00;101281.84;5158510;28;20030;-72
2022/07/02 00:42:52;;;;;;;14.55;9.75;;;;;;;13.20;100.00;101284.50;5158830;28;20081;-73
2022/07/02 00:45:23;;;;;;;15.38;10.77;;;;;;;13.16;100.00;101277.66;5157080;28;20026;-73
2022/07/02 00:47:55;;;;;;;17.75;10.32;;;;;;;13.12;100.00;101283.03;5158524;28;20046;-73
2022/07/02 00:50:25;;;;;;;18.27;10.65;;;;;;;13.03;100.00;101286.00;5157439;28;20554;-73
2022/07/02 00:52:56;;;;;;;19.38;11.05;;;;;;;12.96;100.00;101279.22;5159213;28;20034;-72
2022/07/02 00:55:26;;;;;;;19.42;10.88;;;;;;;12.83;100.00;101287.53;5158378;28;20120;-72
2022/07/02 00:57:57;;;;;;;16.30;11.05;;;;;;;12.88;100.00;101284.69;5158576;28;20073;-73
2022/07/02 01:00:28;;;;;;;19.92;10.60;;;;;;;12.75;100.00;101287.78;5158702;28;20026;-73
2022/07/02 01:02:59;;;;;;;18.05;10.00;;;;;;;12.88;100.00;101281.25;5158791;28;20554;-73
2022/07/02 01:05:29;;;;;;;21.65;10.73;;;;;;;12.71;100.00;101283.56;5158039;28;20030;-72
2022/07/02 01:10:52;;;;;;;16.60;10.20;;;;;;;12.74;100.00;101283.47;5155842;28;20030;-73
2022/07/02 01:13:23;;;;;;;15.48;9.88;;;;;;;12.79;100.00;101291.19;5156420;28;20638;-72
2022/07/02 01:15:54;;;;;;;16.27;10.32;;;;;;;12.83;100.00;101293.63;5160755;28;20121;-73
2022/07/02 01:18:24;;;;;;;16.85;10.93;;;;;;;12.71;100.00;101293.19;5161585;28;20105;-73
2022/07/02 01:20:54;;;;;;;19.73;10.40;;;;;;;12.65;100.00;101294.22;5162223;28;20472;-73
2022/07/02 01:23:25;;;;;;;17.65;9.75;;;;;;;12.71;100.00;101291.44;5162264;28;20026;-72
2022/07/02 01:25:55;;;;;;;18.27;10.25;;;;;;;12.85;100.00;101296.22;5162789;28;20057;-73
2022/07/02 01:28:26;;;;;;;16.02;9.38;;;;;;;12.74;100.00;101287.81;5161492;28;20101;-72
2022/07/02 01:30:56;;;;;;;23.73;9.80;;;;;;;12.63;100.00;101296.06;5162201;28;20477;-73
2022/07/02 01:33:26;;;;;;;15.80;9.77;;;;;;;12.75;100.00;101294.78;5162535;28;20373;-72
2022/07/02 01:35:57;;;;;;;17.30;9.93;;;;;;;12.74;100.00;101287.81;5162658;28;20022;-73
2022/07/02 01:38:28;;;;;;;16.05;9.23;;;;;;;12.67;100.00;101291.56;5161619;28;20022;-72
2022/07/02 01:41:38;;;;;;;15.50;9.48;;;;;;;12.60;100.00;101296.16;5161206;28;20193;-72
2022/07/02 01:43:48;;;;;;;18.27;8.52;;;;;;;12.59;100.00;101302.31;5162061;28;20586;-73
2022/07/02 01:46:19;;;;;;;17.27;8.50;;;;;;;12.63;100.00;101306.53;5161806;28;20057;-72
2022/07/02 01:48:49;;;;;;;19.70;8.52;;;;;;;12.72;100.00;101301.00;5161873;28;20192;-72
2022/07/02 01:51:19;;;;;;;17.77;8.88;;;;;;;12.54;100.00;101312.09;5161806;28;20026;-73
2022/07/02 01:53:50;;;;;;;21.35;8.90;;;;;;;12.41;100.00;101302.91;5161634;28;20045;-73
2022/07/02 01:56:20;;;;;;;18.13;8.75;;;;;;;12.49;100.00;101303.50;5161563;28;20026;-73
2022/07/02 01:58:50;;;;;;;19.60;8.13;;;;;;;12.33;100.00;101299.63;5159965;28;20041;-73
2022/07/02 02:01:21;;;;;;;24.42;9.23;;;;;;;12.27;100.00;101301.63;5161688;28;20026;-73
2022/07/02 02:03:51;;;;;;;12.88;8.00;;;;;;;12.35;100.00;101310.09;5161427;28;20026;-73
2022/07/02 02:06:22;;;;;;;17.45;8.50;;;;;;;12.23;100.00;101310.47;5161232;28;20038;-73
2022/07/02 02:08:52;;;;;;;17.88;8.35;;;;;;;12.30;100.00;101312.84;5159609;28;20026;-73
2022/07/02 02:11:22;;;;;;;21.38;8.70;;;;;;;12.29;100.00;101313.75;5159943;28;20671;-73
2022/07/02 02:13:53;;;;;;;13.38;7.18;;;;;;;12.41;100.00;101315.13;5161119;28;20033;-73
2022/07/02 02:16:29;;;;;;;17.42;7.50;;;;;;;12.50;100.00;101318.31;5160892;28;20026;-73
2022/07/02 02:19:00;;;;;;;18.52;7.70;;;;;;;12.37;100.00;101317.00;5161857;28;20492;-75
2022/07/02 02:21:30;;;;;;;19.85;8.05;;;;;;;12.16;100.00;101319.41;5161237;28;20041;-75
2022/07/02 02:24:01;;;;;;;19.73;7.68;;;;;;;12.08;100.00;101314.41;5160042;28;20508;-75
2022/07/02 02:26:31;;;;;;;14.18;7.38;;;;;;;12.13;100.00;101324.75;5160321;28;20413;-72
2022/07/02 02:29:02;;;;;;;23.73;7.93;;;;;;;12.05;100.00;101331.97;5160842;28;20034;-74
2022/07/02 02:31:32;;;;;;;15.85;7.68;;;;;;;11.97;100.00;101332.19;5161022;28;20484;-76
2022/07/02 02:34:02;;;;;;;17.77;7.35;;;;;;;12.16;100.00;101338.59;5160006;28;20157;-76
2022/07/02 02:36:33;;;;;;;20.00;7.70;;;;;;;12.02;100.00;101337.31;5160887;28;20026;-75
2022/07/02 02:39:03;;;;;;;20.50;7.80;;;;;;;12.04;100.00;101345.97;5160931;28;20516;-75
2022/07/02 02:41:33;;;;;;;18.98;7.95;;;;;;;12.03;100.00;101342.53;5158992;28;20084;-76
2022/07/02 02:44:04;;;;;;;17.40;7.70;;;;;;;11.95;100.00;101341.88;5160964;28;20388;-75
2022/07/02 02:46:34;;;;;;;18.95;7.40;;;;;;;12.07;100.00;101352.00;5159362;28;20035;-74
2022/07/02 02:49:05;;;;;;;24.60;7.68;;;;;;;11.96;100.00;101347.97;5160135;28;20109;-76
2022/07/02 02:51:35;;;;;;;17.73;7.50;;;;;;;11.92;100.00;101351.59;5159696;28;20088;-76
2022/07/02 02:54:05;;;;;;;19.92;7.63;;;;;;;11.98;100.00;101347.00;5160283;28;20045;-76
2022/07/02 02:56:36;;;;;;;22.10;7.68;;;;;;;12.06;100.00;101355.53;5159985;28;20061;-74
2022/07/02 02:59:06;;;;;;;24.90;6.95;;;;;;;11.87;100.00;101349.09;5160454;28;20034;-74
2022/07/02 03:01:36;;;;;;;17.90;7.07;;;;;;;11.92;100.00;101349.81;5159260;28;20037;-75
2022/07/02 03:04:07;;;;;;;24.25;6.75;;;;;;;11.97;100.00;101347.06;5160086;28;20033;-75
2022/07/02 03:06:37;;;;;;;20.98;6.68;;;;;;;11.98;100.00;101346.16;5157834;28;20030;-75
2022/07/02 03:09:07;;;;;;;16.75;6.78;;;;;;;12.15;100.00;101357.84;5159451;28;20503;-76
2022/07/02 03:11:37;;;;;;;12.20;6.40;;;;;;;11.92;100.00;101355.06;5160069;28;20128;-76
2022/07/02 03:14:08;;;;;;;17.48;6.60;;;;;;;11.94;100.00;101349.78;5160275;28;20101;-74
2022/07/02 03:16:38;;;;;;;19.35;6.30;;;;;;;11.85;100.00;101356.16;5174817;28;20072;-75
2022/07/02 03:19:09;;;;;;;14.02;6.18;;;;;;;11.75;100.00;101359.06;5159053;28;20483;-75
2022/07/02 03:21:39;;;;;;;14.27;6.43;;;;;;;11.86;100.00;101362.22;5160004;28;20033;-74
2022/07/02 03:24:09;;;;;;;19.25;6.03;;;;;;;11.76;100.00;101372.09;5159256;28;20460;-75
2022/07/02 03:26:40;;;;;;;18.25;6.18;;;;;;;11.79;100.00;101382.50;5158137;28;20033;-74
2022/07/02 03:29:10;;;;;;;15.68;6.20;;;;;;;11.65;100.00;101382.00;5158554;28;20026;-76
2022/07/02 03:31:40;;;;;;;15.32;6.35;;;;;;;11.80;100.00;101381.59;5156103;28;20058;-74
2022/07/02 03:34:11;;;;;;;17.42;6.38;;;;;;;11.75;100.00;101386.09;5158532;28;20052;-73
2022/07/02 03:36:41;;;;;;;22.17;6.22;;;;;;;11.80;100.00;101384.19;5159269;28;20495;-73
2022/07/02 03:39:11;;;;;;;20.73;6.47;;;;;;;11.78;100.00;101385.16;5159112;28;20105;-75
2022/07/02 03:41:41;;;;;;;17.27;6.60;;;;;;;11.73;100.00;101382.66;5159847;28;20484;-76
2022/07/02 03:44:12;;;;;;;16.15;6.28;;;;;;;11.74;100.00;101388.75;5159623;28;20026;-74
2022/07/02 03:46:42;;;;;;;15.68;5.78;;;;;;;11.71;100.00;101388.84;5158850;28;20018;-75
2022/07/02 03:49:13;;;;;;;21.00;6.35;;;;;;;11.68;100.00;101395.03;5159333;28;20105;-75
2022/07/02 03:51:43;;;;;;;16.83;6.25;;;;;;;11.64;100.00;101387.28;5159483;28;20488;-75
2022/07/02 03:54:13;;;;;;;19.83;7.10;;;;;;;11.72;100.00;101388.81;5158294;28;20514;-75
2022/07/02 03:56:44;;;;;;;25.92;7.05;;;;;;;11.86;100.00;101397.16;5159066;28;20033;-75
2022/07/02 03:59:14;;;;;;;20.70;6.75;;;;;;;11.91;100.00;101397.88;5159006;28;20442;-74
2022/07/02 04:01:44;;;;;;;15.77;6.07;;;;;;;11.99;100.00;101401.13;5156342;28;20508;-75
2022/07/02 04:04:14;;;;;;;18.70;6.60;;;;;;;12.09;100.00;101399.97;5159161;28;20033;-75
2022/07/02 04:06:45;;;;;;;10.30;6.10;;;;;;;12.27;100.00;101401.22;5158378;28;20035;-74
2022/07/02 04:09:16;;;;;;;15.68;6.50;;;;;;;12.35;100.00;101405.34;5154517;28;20049;-76
2022/07/02 04:11:46;;;;;;;21.98;5.68;;;;;;;12.55;100.00;101399.47;5159532;28;20518;-74
2022/07/02 04:14:16;;;;;;;19.90;5.68;;;;;;;12.68;100.00;101404.31;5158774;28;20037;-76
2022/07/02 04:16:47;;;;;;;17.40;5.65;;;;;;;12.54;100.00;101409.13;5157512;28;20053;-75
2022/07/02 04:19:17;;;;;;;19.33;6.15;;;;;;;12.56;100.00;101409.94;5158727;28;20487;-75
2022/07/02 04:21:47;;;;;;;19.42;5.63;;;;;;;12.51;100.00;101413.59;5158989;28;20107;-76
2022/07/02 04:24:18;;;;;;;15.35;5.93;;;;;;;12.58;100.00;101410.75;5159027;28;20226;-75
2022/07/02 04:26:48;;;;;;;20.80;5.45;;;;;;;12.58;100.00;101413.34;5158327;28;20042;-75
2022/07/02 04:29:18;;;;;;;21.55;6.38;;;;;;;12.68;100.00;101409.56;5158908;28;20126;-75
2022/07/02 04:31:49;;;;;;;22.77;5.70;;;;;;;12.71;100.00;101403.34;5155777;28;20804;-74
2022/07/02 04:34:19;;;;;;;20.67;6.07;;;;;;;12.79;100.00;101407.44;5159347;28;20441;-74
2022/07/02 04:36:49;;;;;;;17.27;5.70;;;;;;;13.01;100.00;101405.88;5158461;28;20068;-75
2022/07/02 04:39:20;;;;;;;13.85;5.28;;;;;;;13.27;100.00;101413.78;5158104;28;20438;-74
2022/07/02 04:41:50;;;;;;;16.15;5.25;;;;;;;13.82;100.00;101409.22;5158964;28;20037;-75
2022/07/02 04:44:20;;;;;;;20.73;4.70;;;;;;;14.41;100.00;101404.44;5159319;28;20023;-75
2022/07/02 04:46:51;;;;;;;23.55;4.72;;;;;;;14.66;100.00;101403.44;5158584;28;20030;-75
2022/07/02 04:49:21;;;;;;;15.93;4.40;;;;;;;15.69;100.00;101395.63;5158354;28;20558;-75
2022/07/02 04:51:52;;;;;;;13.00;3.33;;;;;;;17.20;94.24;101401.66;5162260;28;20499;-75
2022/07/02 04:54:22;;;;;;;16.73;2.92;;;;;;;18.88;84.37;101404.94;5161752;28;20022;-74
2022/07/02 04:56:52;;;;;;;14.05;2.30;;;;;;;19.81;81.52;101402.06;5162248;28;20256;-75
2022/07/02 04:59:23;;;;;;;15.90;3.05;;;;;;;21.05;77.31;101402.13;5162993;28;20029;-77
2022/07/02 05:01:53;;;;;;;11.65;2.20;;;;;;;22.83;67.89;101399.38;5159556;28;20062;-75
2022/07/02 05:04:24;;;;;;;15.80;2.67;;;;;;;22.32;73.84;101407.53;5162375;28;20109;-76
2022/07/02 05:06:54;;;;;;;11.13;2.53;;;;;;;23.48;70.60;101409.53;5161972;28;20049;-75
2022/07/02 05:09:25;;;;;;;17.77;2.72;;;;;;;22.45;73.96;101413.75;5161207;28;20022;-76
2022/07/02 05:11:55;;;;;;;15.73;2.05;;;;;;;22.98;71.18;101407.09;5162368;28;20157;-76
2022/07/02 05:14:25;;;;;;;9.73;2.05;;;;;;;23.56;68.35;101412.47;5162318;28;20109;-75
2022/07/02 05:16:56;;;;;;;12.65;2.25;;;;;;;24.02;67.49;101405.34;5162506;28;20022;-75
2022/07/02 05:19:26;;;;;;;11.63;2.13;;;;;;;24.83;66.37;101404.13;5161714;28;20058;-76
2022/07/02 05:21:56;;;;;;;13.57;2.10;;;;;;;24.85;66.03;101404.84;5161841;28;20045;-76
2022/07/02 05:24:27;;;;;;;11.50;1.97;;;;;;;23.32;69.84;101409.00;5161696;28;20026;-74
2022/07/02 05:26:57;;;;;;;7.20;1.92;;;;;;;23.15;70.51;101413.88;5161951;28;20283;-73
2022/07/02 05:29:27;;;;;;;8.82;1.75;;;;;;;24.06;67.09;101408.63;5162181;28;20076;-74
2022/07/02 05:31:58;;;;;;;8.00;1.67;;;;;;;23.19;70.17;101418.88;5159953;28;20492;-74
2022/07/02 05:34:28;;;;;;;8.27;1.90;;;;;;;23.73;68.15;101412.03;5161466;28;20030;-73
2022/07/02 05:36:58;;;;;;;9.20;1.38;;;;;;;24.19;69.07;101407.53;5162004;28;20385;-74
2022/07/02 05:39:29;;;;;;;6.50;1.60;;;;;;;23.50;71.71;101410.28;5160924;28;20026;-73
2022/07/02 05:41:59;;;;;;;5.55;1.25;;;;;;;24.91;65.99;101413.22;5162594;28;20030;-75
2022/07/02 05:44:29;;;;;;;6.50;1.60;;;;;;;23.58;69.35;101418.56;5162119;28;20083;-74
2022/07/02 05:46:59;;;;;;;8.20;1.63;;;;;;;23.79;68.10;101408.06;5161568;28;20027;-75
2022/07/02 05:49:30;;;;;;;5.88;1.50;;;;;;;23.38;71.24;101410.34;5159918;28;20023;-75
2022/07/02 05:52:00;;;;;;;13.30;2.28;;;;;;;23.77;68.96;101421.53;5161881;28;20026;-75
2022/07/02 05:54:30;;;;;;;8.10;1.85;;;;;;;22.55;72.85;101426.31;5159513;28;20030;-76
2022/07/02 05:57:01;;;;;;;9.82;1.80;;;;;;;22.21;76.86;101434.94;5160472;28;20030;-75
2022/07/02 05:59:31;;;;;;;5.10;1.75;;;;;;;21.32;81.81;101426.03;5158583;28;20029;-75
2022/07/02 06:02:05;;;;;;;8.65;1.88;;;;;;;21.57;80.68;101434.09;5159898;28;20053;-76
2022/07/02 06:04:35;;;;;;;9.10;1.70;;;;;;;21.89;77.28;101432.81;5160783;28;20076;-75
2022/07/02 06:09:54;;;;;;;6.82;1.60;;;;;;;20.84;81.73;101426.56;5161204;28;20469;-73
2022/07/02 06:12:25;;;;;;;11.00;1.77;;;;;;;20.93;80.18;101433.97;5160629;28;20026;-76
2022/07/02 06:14:55;;;;;;;4.93;1.70;;;;;;;20.82;81.21;101436.41;5154267;28;20029;-75
2022/07/02 06:17:26;;;;;;;6.78;1.63;;;;;;;21.59;79.80;101434.84;5160115;28;20042;-75
2022/07/02 06:19:56;;;;;;;8.57;1.75;;;;;;;21.68;75.93;101442.22;5160323;28;20022;-76
2022/07/02 06:22:26;;;;;;;5.07;1.70;;;;;;;22.19;75.75;101450.19;5160502;28;20270;-75
2022/07/02 06:24:57;;;;;;;9.20;1.70;;;;;;;21.66;78.79;101455.66;5161103;28;20059;-75
2022/07/02 06:27:27;;;;;;;3.47;1.52;;;;;;;22.31;76.88;101454.66;5160303;28;20101;-75
2022/07/02 06:29:57;;;;;;;2.72;1.17;;;;;;;22.65;74.94;101455.81;5160788;28;20023;-75
2022/07/02 06:32:28;;;;;;;5.10;1.35;;;;;;;22.23;75.71;101454.34;5159951;28;20511;-73
2022/07/02 06:34:58;;;;;;;4.78;1.48;;;;;;;22.05;76.47;101452.94;5160955;28;20061;-76
2022/07/02 06:37:29;;;;;;;7.07;1.88;;;;;;;21.39;79.17;101460.13;5158696;28;20208;-75
2022/07/02 06:39:59;;;;;;;5.63;1.45;;;;;;;22.90;73.80;101449.47;5160899;28;20026;-73
2022/07/02 06:42:30;;;;;;;7.75;1.85;;;;;;;22.77;74.71;101450.47;5160859;28;20097;-74
2022/07/02 06:45:01;;;;;;;5.00;1.70;;;;;;;22.95;74.66;101447.31;5160957;28;20026;-76
2022/07/02 06:47:32;;;;;;;5.60;1.50;;;;;;;23.96;68.99;101443.22;5157757;28;20029;-75
2022/07/02 06:50:02;;;;;;;3.22;1.35;;;;;;;23.68;69.15;101446.25;5159656;28;20411;-76
2022/07/02 06:52:33;;;;;;;7.70;1.52;;;;;;;24.04;68.19;101448.81;5159828;28;20026;-76
2022/07/02 06:55:04;;;;;;;4.40;1.67;;;;;;;23.46;73.20;101447.97;5160943;28;20534;-73
2022/07/02 06:57:35;;;;;;;5.30;1.77;;;;;;;23.73;73.59;101446.75;5159251;28;20014;-76
2022/07/02 07:00:06;;;;;;;5.03;1.50;;;;;;;24.29;72.33;101439.75;5160710;28;20034;-74
2022/07/02 07:02:37;;;;;;;8.15;1.92;;;;;;;25.05;68.87;101438.84;5159945;28;20121;-74
2022/07/02 07:05:08;;;;;;;11.60;2.05;;;;;;;25.58;66.17;101436.16;5160319;28;20109;-74
2022/07/02 07:07:38;;;;;;;5.57;2.08;;;;;;;25.97;65.04;101445.38;5160094;28;20022;-74
2022/07/02 07:10:09;;;;;;;6.68;2.22;;;;;;;24.71;66.22;101439.06;5157290;28;20373;-74
2022/07/02 07:12:39;;;;;;;10.00;2.55;;;;;;;25.27;63.14;101441.50;5159416;28;20511;-73
2022/07/02 07:15:10;;;;;;;6.68;2.03;;;;;;;25.48;64.61;101439.75;5160327;28;20026;-73
2022/07/02 07:17:40;;;;;;;8.60;2.30;;;;;;;26.36;60.69;101445.44;5159280;28;20388;-74
2022/07/02 07:20:16;;;;;;;4.78;2.17;;;;;;;25.73;60.57;101444.72;5159891;28;20289;-74
2022/07/02 07:22:46;;;;;;;5.68;2.40;;;;;;;25.73;62.75;101442.03;5159853;28;20030;-75
2022/07/02 07:25:17;;;;;;;4.57;2.20;;;;;;;25.88;56.96;101454.16;5159991;28;20211;-74
2022/07/02 07:27:48;;;;;;;5.18;2.10;;;;;;;26.47;58.73;101450.72;5159624;28;20038;-74
2022/07/02 07:30:18;;;;;;;5.68;2.00;;;;;;;26.20;58.83;101455.78;5160011;28;20504;-74
2022/07/02 07:32:48;;;;;;;7.30;2.13;;;;;;;26.08;56.34;101453.31;5156321;28;20062;-74
2022/07/02 07:35:19;;;;;;;5.63;1.93;;;;;;;27.88;54.58;101457.41;5160367;28;20439;-74
2022/07/02 07:37:57;;;;;;;5.88;1.75;;;;;;;27.34;57.33;101456.25;5159832;28;20308;-75
2022/07/02 07:40:28;;;;;;;9.00;2.28;;;;;;;27.75;57.45;101456.03;5159282;28;20061;-75
2022/07/02 07:42:59;;;;;;;5.50;1.77;;;;;;;27.73;56.67;101456.16;5159400;28;20029;-75
2022/07/02 07:45:30;;;;;;;5.97;2.10;;;;;;;26.95;57.50;101452.59;5159269;28;20520;-75
2022/07/02 07:48:00;;;;;;;5.35;1.88;;;;;;;26.89;55.46;101458.53;5158237;28;20033;-75
2022/07/02 07:50:30;;;;;;;7.00;1.80;;;;;;;27.41;52.70;101455.53;5157067;28;20045;-74
2022/07/02 07:53:01;;;;;;;5.97;1.40;;;;;;;27.80;53.31;101449.19;5158403;28;20041;-74
2022/07/02 07:55:31;;;;;;;7.63;1.65;;;;;;;27.91;53.24;101462.50;5158816;28;20400;-75
2022/07/02 07:58:02;;;;;;;5.80;1.45;;;;;;;28.09;53.08;101446.50;5157691;28;20037;-74
2022/07/02 08:00:32;;;;;;;5.10;1.60;;;;;;;28.83;51.35;101454.44;5158480;28;20046;-74
2022/07/02 08:03:03;;;;;;;4.43;1.00;;;;;;;29.22;51.85;101453.25;5158954;28;20033;-74
2022/07/02 08:05:33;;;;;;;2.80;1.20;;;;;;;29.14;49.87;101450.47;5159232;28;20420;-74
2022/07/02 08:08:04;;;;;;;6.35;1.50;;;;;;;27.84;52.26;101456.00;5158311;28;20031;-75
2022/07/02 08:10:34;;;;;;;8.88;1.85;;;;;;;29.51;52.21;101443.13;5156989;28;20030;-74
2022/07/02 08:13:05;;;;;;;7.07;2.03;;;;;;;29.03;54.13;101456.06;5156673;28;20033;-74
2022/07/02 08:15:35;;;;;;;7.90;1.63;;;;;;;29.02;52.11;101455.22;5158257;28;20058;-74
2022/07/02 08:18:06;;;;;;;8.48;1.65;;;;;;;27.51;52.63;101456.41;5181215;23;20341;-71
2022/07/02 08:20:37;;;;;;;5.05;1.60;;;;;;;29.65;50.67;101447.97;5179435;28;20034;-72
2022/07/02 08:23:07;;;;;;;3.67;1.52;;;;;;;30.48;50.18;101457.22;5181900;28;20030;-72
2022/07/02 08:25:37;;;;;;;5.17;1.53;;;;;;;31.06;47.74;101448.19;5188521;28;20109;-72
2022/07/02 08:28:08;;;;;;;6.53;1.58;;;;;;;30.37;49.93;101448.53;5188381;28;20297;-71
2022/07/02 08:30:38;;;;;;;4.35;1.60;;;;;;;30.97;48.62;101448.34;5180980;28;20492;-72
2022/07/02 08:33:09;;;;;;;5.03;1.70;;;;;;;29.19;51.22;101454.41;5170603;28;20309;-72
2022/07/02 08:35:39;;;;;;;5.82;1.40;;;;;;;29.03;53.62;101456.06;5172382;28;20070;-72
2022/07/02 08:38:10;;;;;;;5.80;1.80;;;;;;;28.85;52.15;101458.69;5180844;28;20277;-71
2022/07/02 08:40:44;;;;;;;11.13;1.50;;;;;;;28.93;50.51;101452.59;5171014;28;20034;-72
2022/07/02 08:43:16;;;;;;;4.75;1.27;;;;;;;29.07;52.00;101452.91;5170808;28;20050;-71
2022/07/02 08:45:47;;;;;;;3.72;1.17;;;;;;;28.24;52.02;101453.09;5169686;28;20446;-71
2022/07/02 08:48:18;;;;;;;5.80;1.30;;;;;;;28.59;53.75;101459.53;5162629;28;20030;-71
2022/07/02 08:50:49;;;;;;;3.45;1.33;;;;;;;28.07;49.79;101452.00;5165074;28;20037;-71
2022/07/02 08:53:20;;;;;;;3.63;1.23;;;;;;;30.40;49.62;101445.53;5172009;28;20056;-72
2022/07/02 08:55:53;;;;;;;4.07;1.05;;;;;;;31.21;52.18;101440.34;5180625;28;20034;-72
2022/07/02 08:58:24;;;;;;;2.03;0.85;;;;;;;31.22;46.62;101439.31;5174673;28;20030;-71
2022/07/02 09:00:55;;;;;;;6.03;1.23;;;;;;;30.47;49.45;101444.72;5166958;28;20523;-71
2022/07/02 09:03:26;;;;;;;4.07;0.73;;;;;;;29.24;53.44;101445.88;5158264;28;20039;-72
2022/07/02 09:05:57;;;;;;;2.20;0.77;;;;;;;29.56;50.82;101432.75;5166773;28;20060;-71
2022/07/02 09:08:29;;;;;;;2.63;0.80;;;;;;;29.78;52.24;101438.47;5169743;28;20042;-71
2022/07/02 09:11:02;;;;;;;5.10;1.00;;;;;;;30.73;48.37;101426.66;5168640;28;20026;-72
2022/07/02 09:13:33;;;;;;;5.97;1.10;;;;;;;31.49;48.48;101423.66;5175597;28;20030;-71
2022/07/02 09:16:05;;;;;;;3.35;0.77;;;;;;;29.26;50.39;101428.53;5181336;28;20037;-72
2022/07/02 09:18:36;;;;;;;2.25;0.70;;;;;;;29.45;48.38;101419.47;5173669;28;20042;-71
2022/07/02 09:21:06;;;;;;;2.85;0.80;;;;;;;30.86;47.64;101417.06;5180317;28;20113;-72
2022/07/02 09:23:45;;;;;;;3.17;0.80;;;;;;;31.36;47.13;101409.78;5181327;28;20112;-72
2022/07/02 09:26:22;;;;;;;4.03;1.25;;;;;;;30.35;48.29;101410.94;5179237;28;20277;-72
2022/07/02 09:28:59;;;;;;;3.78;1.00;;;;;;;31.85;47.67;101403.38;5179425;28;20041;-72
2022/07/02 09:31:46;;;;;;;5.05;0.70;;;;;;;31.39;47.91;101416.72;5177521;28;20066;-72
2022/07/02 09:34:27;;;;;;;3.55;0.80;;;;;;;30.76;47.89;101402.00;5164316;28;20513;-72
2022/07/02 09:36:57;;;;;;;4.13;0.73;;;;;;;31.57;45.99;101398.47;5176285;28;20037;-71
2022/07/02 09:39:31;;;;;;;19.80;2.03;;;;;;;31.33;49.36;101393.91;5170362;28;20036;-70
2022/07/02 09:42:01;;;;;;;5.97;0.90;;;;;;;32.85;45.93;101388.22;5169187;28;20278;-71
2022/07/02 09:44:33;;;;;;;8.27;1.20;;;;;;;30.99;44.57;101401.25;5178130;28;20040;-71
2022/07/02 09:47:03;;;;;;;2.10;0.80;;;;;;;29.63;47.71;101393.38;5180843;28;20507;-71
2022/07/02 09:49:33;;;;;;;3.95;1.10;;;;;;;30.25;48.17;101398.56;5173473;28;20057;-70
2022/07/02 09:52:04;;;;;;;3.23;1.00;;;;;;;30.51;46.75;101400.22;5170779;28;20048;-71
2022/07/02 09:54:34;;;;;;;3.40;1.10;;;;;;;32.32;45.12;101382.69;5181341;28;20277;-72
2022/07/02 09:57:05;;;;;;;11.33;1.73;;;;;;;32.39;47.89;101383.66;5181438;28;20061;-69
2022/07/02 09:59:37;;;;;;;112.40;71.57;;;;;;;31.54;47.01;101391.53;5175637;28;20285;-71
2022/07/02 10:02:26;;;;;;;4.70;2.22;;;;;;;33.13;44.12;101381.28;5173983;28;20372;-71
2022/07/02 10:04:56;;;;;;;2.50;1.23;;;;;;;31.32;45.70;101376.00;5166318;28;20076;-72
2022/07/02 10:07:26;;;;;;;3.67;0.88;;;;;;;32.38;47.06;101373.03;5175534;28;20499;-71
2022/07/02 10:10:02;;;;;;;2.70;1.17;;;;;;;32.06;47.05;101370.38;5171232;28;20669;-71
2022/07/02 10:12:33;;;;;;;3.33;0.80;;;;;;;31.01;46.38;101376.78;5170642;28;20363;-71
2022/07/02 10:15:04;;;;;;;1.67;0.60;;;;;;;31.11;48.73;101372.03;5180426;28;20029;-71
2022/07/02 10:17:36;;;;;;;6.15;4.57;;;;;;;30.01;52.17;101383.03;5179513;28;20032;-71
2022/07/02 10:20:08;;;;;;;4.53;1.73;;;;;;;29.97;50.62;101380.81;5173980;28;20417;-71
2022/07/02 10:22:38;;;;;;;4.50;2.50;;;;;;;27.77;52.35;101393.06;5176117;28;20041;-70
2022/07/02 10:25:09;;;;;;;3.43;1.20;;;;;;;27.42;53.26;101384.72;5180545;28;20030;-70
2022/07/02 10:27:41;;;;;;;2.75;0.80;;;;;;;27.52;52.69;101380.19;5165122;28;20281;-71
2022/07/02 10:30:13;;;;;;;2.13;0.60;;;;;;;27.29;54.69;101380.63;5167681;28;20423;-71
2022/07/02 10:33:01;;;;;;;3.72;0.88;;;;;;;27.73;55.54;101380.91;5171632;28;20037;-70
2022/07/02 10:35:34;;;;;;;2.80;1.00;;;;;;;26.36;53.19;101389.13;5165446;28;20149;-70
2022/07/02 10:38:06;;;;;;;2.38;0.73;;;;;;;25.82;56.72;101387.69;5165877;28;20109;-69
2022/07/02 10:40:47;;;;;;;2.55;0.70;;;;;;;26.42;54.80;101379.69;5164920;28;20403;-72
2022/07/02 10:43:18;;;;;;;2.75;0.73;;;;;;;26.76;55.77;101371.22;5173414;28;20025;-70
2022/07/02 10:45:49;;;;;;;2.78;0.77;;;;;;;27.39;55.75;101368.03;5178947;28;20556;-70
2022/07/02 10:48:19;;;;;;;1.08;0.60;;;;;;;27.77;55.14;101355.44;5178558;28;20113;-70
2022/07/02 10:50:50;;;;;;;3.70;0.60;;;;;;;27.72;52.47;101359.53;5179749;28;20041;-70
2022/07/02 10:53:24;;;;;;;3.58;1.20;;;;;;;27.77;53.06;101355.44;5180054;28;20817;-70
2022/07/02 10:55:58;;;;;;;3.92;1.40;;;;;;;27.79;53.69;101350.75;5179975;28;20026;-68
2022/07/02 10:58:36;;;;;;;4.40;1.40;;;;;;;27.05;54.00;101359.53;5179282;28;20022;-70
2022/07/02 11:01:18;;;;;;;3.40;1.52;;;;;;;27.19;54.04;101347.53;5178408;28;21431;-70
2022/07/02 11:04:00;;;;;;;2.53;1.05;;;;;;;27.10;51.73;101346.56;5173991;28;20061;-70
2022/07/02 11:06:33;;;;;;;6.43;3.33;;;;;;;27.28;51.99;101344.03;5177922;28;20025;-70
2022/07/02 11:09:05;;;;;;;8.73;3.30;;;;;;;27.46;53.97;101337.78;5177040;28;20031;-70
2022/07/02 11:11:36;;;;;;;15.02;6.75;;;;;;;27.34;55.65;101330.88;5175459;28;20034;-71
2022/07/02 11:14:08;;;;;;;11.93;5.60;;;;;;;27.38;52.76;101334.09;5178518;28;20091;-70
2022/07/02 11:16:42;;;;;;;8.43;4.90;;;;;;;27.23;52.67;101328.34;5178407;28;20068;-70
2022/07/02 11:19:24;;;;;;;12.82;6.78;;;;;;;27.17;55.30;101328.06;5177737;28;20025;-71
2022/07/02 11:21:58;;;;;;;7.53;4.25;;;;;;;27.53;55.93;101330.00;5173574;28;20541;-70
2022/07/02 11:24:32;;;;;;;8.45;4.55;;;;;;;27.60;54.84;101326.59;5179593;28;20037;-70
2022/07/02 11:27:02;;;;;;;7.60;2.60;;;;;;;27.38;51.19;101321.53;5177474;28;20033;-71
2022/07/02 11:29:32;;;;;;;9.27;5.90;;;;;;;26.60;52.36;101329.78;5178770;28;20026;-71
2022/07/02 11:32:03;;;;;;;3.78;1.63;;;;;;;26.93;52.83;101323.06;5172060;28;20085;-72
2022/07/02 11:34:33;;;;;;;7.15;4.15;;;;;;;27.12;56.56;101323.09;5176278;28;20018;-73
2022/07/02 11:37:04;;;;;;;16.00;9.52;;;;;;;27.04;53.54;101320.25;5176181;28;20100;-73
2022/07/02 11:39:34;;;;;;;24.02;16.52;;;;;;;26.61;55.61;101326.13;5160016;28;20061;-72